sensor_id;sensor_type;location;lat;lon;timestamp;P1;durP1;ratioP1;P2;durP2;ratioP2
7173;SDS011;3628;48.654;8.932;2023-04-24T00:01:27;0.70;;;0.40;;
7173;SDS011;3628;48.654;8.932;2023-04-24T00:03:54;1.20;;;0.40;;
7173;SDS011;3628;48.654;8.932;2023-04-24T00:06:21;0.30;;;0.30;;
7173;SDS011;3628;48.654;8.932;2023-04-24T00:08:48;0.97;;;0.30;;
7173;SDS011;3628;48.654;8.932;2023-04-24T00:11:14;0.97;;;0.20;;
7173;SDS011;3628;48.654;8.932;2023-04-24T00:13:39;4.50;;;0.60;;
7173;SDS011;3628;48.654;8.932;2023-04-24T00:16:05;2.13;;;0.30;;
7173;SDS011;3628;48.654;8.932;2023-04-24T00:18:31;2.10;;;0.60;;
7173;SDS011;3628;48.654;8.932;2023-04-24T00:20:56;1.00;;;0.33;;
7173;SDS011;3628;48.654;8.932;2023-04-24T00:23:22;0.93;;;0.40;;
7173;SDS011;3628;48.654;8.932;2023-04-24T00:25:47;0.20;;;0.20;;
7173;SDS011;3628;48.654;8.932;2023-04-24T00:28:13;0.80;;;0.20;;
7173;SDS011;3628;48.654;8.932;2023-04-24T00:30:39;1.60;;;0.30;;
7173;SDS011;3628;48.654;8.932;2023-04-24T00:33:05;0.50;;;0.20;;
7173;SDS011;3628;48.654;8.932;2023-04-24T00:35:30;0.40;;;0.20;;
7173;SDS011;3628;48.654;8.932;2023-04-24T00:37:56;1.43;;;0.50;;
7173;SDS011;3628;48.654;8.932;2023-04-24T00:40:21;1.53;;;0.50;;
7173;SDS011;3628;48.654;8.932;2023-04-24T00:42:47;0.67;;;0.20;;
7173;SDS011;3628;48.654;8.932;2023-04-24T00:45:13;0.53;;;0.20;;
7173;SDS011;3628;48.654;8.932;2023-04-24T00:47:39;1.33;;;0.30;;
7173;SDS011;3628;48.654;8.932;2023-04-24T00:50:06;0.30;;;0.20;;
7173;SDS011;3628;48.654;8.932;2023-04-24T00:52:33;0.67;;;0.30;;
7173;SDS011;3628;48.654;8.932;2023-04-24T00:54:58;0.20;;;0.20;;
7173;SDS011;3628;48.654;8.932;2023-04-24T00:57:24;0.97;;;0.30;;
7173;SDS011;3628;48.654;8.932;2023-04-24T00:59:50;0.87;;;0.40;;
7173;SDS011;3628;48.654;8.932;2023-04-24T01:02:17;1.90;;;0.30;;
7173;SDS011;3628;48.654;8.932;2023-04-24T01:04:43;0.63;;;0.43;;
7173;SDS011;3628;48.654;8.932;2023-04-24T01:07:09;1.53;;;0.30;;
7173;SDS011;3628;48.654;8.932;2023-04-24T01:09:39;0.30;;;0.23;;
7173;SDS011;3628;48.654;8.932;2023-04-24T01:12:06;0.30;;;0.30;;
7173;SDS011;3628;48.654;8.932;2023-04-24T01:14:32;0.50;;;0.30;;
7173;SDS011;3628;48.654;8.932;2023-04-24T01:16:58;1.07;;;0.37;;
7173;SDS011;3628;48.654;8.932;2023-04-24T01:19:24;1.40;;;0.40;;
7173;SDS011;3628;48.654;8.932;2023-04-24T01:21:50;0.33;;;0.23;;
7173;SDS011;3628;48.654;8.932;2023-04-24T01:24:18;1.33;;;0.30;;
7173;SDS011;3628;48.654;8.932;2023-04-24T01:26:44;1.20;;;0.50;;
7173;SDS011;3628;48.654;8.932;2023-04-24T01:29:11;2.67;;;0.50;;
7173;SDS011;3628;48.654;8.932;2023-04-24T01:31:36;1.20;;;0.47;;
7173;SDS011;3628;48.654;8.932;2023-04-24T01:34:04;1.27;;;0.40;;
7173;SDS011;3628;48.654;8.932;2023-04-24T01:36:30;0.40;;;0.30;;
7173;SDS011;3628;48.654;8.932;2023-04-24T01:38:58;0.57;;;0.40;;
7173;SDS011;3628;48.654;8.932;2023-04-24T01:41:23;1.20;;;0.37;;
7173;SDS011;3628;48.654;8.932;2023-04-24T01:43:50;1.10;;;0.43;;
7173;SDS011;3628;48.654;8.932;2023-04-24T01:46:16;0.67;;;0.30;;
7173;SDS011;3628;48.654;8.932;2023-04-24T01:48:41;0.87;;;0.40;;
7173;SDS011;3628;48.654;8.932;2023-04-24T01:51:07;2.80;;;0.40;;
7173;SDS011;3628;48.654;8.932;2023-04-24T01:53:33;0.30;;;0.30;;
7173;SDS011;3628;48.654;8.932;2023-04-24T01:55:58;0.33;;;0.30;;
7173;SDS011;3628;48.654;8.932;2023-04-24T01:58:24;0.80;;;0.40;;
7173;SDS011;3628;48.654;8.932;2023-04-24T02:00:51;1.07;;;0.40;;
7173;SDS011;3628;48.654;8.932;2023-04-24T02:03:16;0.63;;;0.33;;
7173;SDS011;3628;48.654;8.932;2023-04-24T02:05:43;1.60;;;0.40;;
7173;SDS011;3628;48.654;8.932;2023-04-24T02:08:10;2.47;;;0.50;;
7173;SDS011;3628;48.654;8.932;2023-04-24T02:10:35;1.07;;;0.30;;
7173;SDS011;3628;48.654;8.932;2023-04-24T02:13:01;1.90;;;0.40;;
7173;SDS011;3628;48.654;8.932;2023-04-24T02:15:27;0.93;;;0.40;;
7173;SDS011;3628;48.654;8.932;2023-04-24T02:17:53;2.77;;;0.40;;
7173;SDS011;3628;48.654;8.932;2023-04-24T02:20:18;1.57;;;0.30;;
7173;SDS011;3628;48.654;8.932;2023-04-24T02:22:44;0.60;;;0.37;;
7173;SDS011;3628;48.654;8.932;2023-04-24T02:25:10;1.27;;;0.50;;
7173;SDS011;3628;48.654;8.932;2023-04-24T02:27:35;3.57;;;0.60;;
7173;SDS011;3628;48.654;8.932;2023-04-24T02:30:01;2.00;;;0.60;;
7173;SDS011;3628;48.654;8.932;2023-04-24T02:32:28;0.43;;;0.33;;
7173;SDS011;3628;48.654;8.932;2023-04-24T02:34:53;1.60;;;0.40;;
7173;SDS011;3628;48.654;8.932;2023-04-24T02:37:19;1.33;;;0.30;;
7173;SDS011;3628;48.654;8.932;2023-04-24T02:39:44;1.23;;;0.50;;
7173;SDS011;3628;48.654;8.932;2023-04-24T02:42:10;0.50;;;0.37;;
7173;SDS011;3628;48.654;8.932;2023-04-24T02:44:35;0.77;;;0.50;;
7173;SDS011;3628;48.654;8.932;2023-04-24T02:47:01;2.97;;;0.50;;
7173;SDS011;3628;48.654;8.932;2023-04-24T02:49:26;1.80;;;0.70;;
7173;SDS011;3628;48.654;8.932;2023-04-24T02:51:52;2.03;;;0.30;;
7173;SDS011;3628;48.654;8.932;2023-04-24T02:54:17;0.83;;;0.30;;
7173;SDS011;3628;48.654;8.932;2023-04-24T02:56:43;3.53;;;0.53;;
7173;SDS011;3628;48.654;8.932;2023-04-24T02:59:08;1.07;;;0.43;;
7173;SDS011;3628;48.654;8.932;2023-04-24T03:01:35;2.63;;;0.40;;
7173;SDS011;3628;48.654;8.932;2023-04-24T03:04:01;1.90;;;0.40;;
7173;SDS011;3628;48.654;8.932;2023-04-24T03:06:26;0.70;;;0.30;;
7173;SDS011;3628;48.654;8.932;2023-04-24T03:08:52;0.33;;;0.33;;
7173;SDS011;3628;48.654;8.932;2023-04-24T03:11:18;1.20;;;0.53;;
7173;SDS011;3628;48.654;8.932;2023-04-24T03:13:44;0.27;;;0.27;;
7173;SDS011;3628;48.654;8.932;2023-04-24T03:16:09;0.87;;;0.30;;
7173;SDS011;3628;48.654;8.932;2023-04-24T03:18:35;0.83;;;0.30;;
7173;SDS011;3628;48.654;8.932;2023-04-24T03:21:00;1.90;;;0.47;;
7173;SDS011;3628;48.654;8.932;2023-04-24T03:23:26;0.23;;;0.23;;
7173;SDS011;3628;48.654;8.932;2023-04-24T03:25:51;0.77;;;0.23;;
7173;SDS011;3628;48.654;8.932;2023-04-24T03:28:17;0.83;;;0.50;;
7173;SDS011;3628;48.654;8.932;2023-04-24T03:30:43;0.50;;;0.40;;
7173;SDS011;3628;48.654;8.932;2023-04-24T03:33:08;1.40;;;0.30;;
7173;SDS011;3628;48.654;8.932;2023-04-24T03:35:34;1.27;;;0.30;;
7173;SDS011;3628;48.654;8.932;2023-04-24T03:38:01;1.83;;;0.67;;
7173;SDS011;3628;48.654;8.932;2023-04-24T03:40:26;1.60;;;0.40;;
7173;SDS011;3628;48.654;8.932;2023-04-24T03:42:54;0.50;;;0.37;;
7173;SDS011;3628;48.654;8.932;2023-04-24T03:45:19;2.10;;;0.70;;
7173;SDS011;3628;48.654;8.932;2023-04-24T03:47:45;0.20;;;0.20;;
7173;SDS011;3628;48.654;8.932;2023-04-24T03:50:11;1.37;;;0.20;;
7173;SDS011;3628;48.654;8.932;2023-04-24T03:52:36;1.70;;;0.40;;
7173;SDS011;3628;48.654;8.932;2023-04-24T03:55:03;0.47;;;0.30;;
7173;SDS011;3628;48.654;8.932;2023-04-24T03:57:29;1.43;;;0.50;;
7173;SDS011;3628;48.654;8.932;2023-04-24T03:59:54;0.60;;;0.30;;
7173;SDS011;3628;48.654;8.932;2023-04-24T04:02:20;0.97;;;0.40;;
7173;SDS011;3628;48.654;8.932;2023-04-24T04:04:45;1.07;;;0.47;;
7173;SDS011;3628;48.654;8.932;2023-04-24T04:07:11;1.50;;;0.50;;
7173;SDS011;3628;48.654;8.932;2023-04-24T04:09:37;0.27;;;0.20;;
7173;SDS011;3628;48.654;8.932;2023-04-24T04:12:03;0.70;;;0.27;;
7173;SDS011;3628;48.654;8.932;2023-04-24T04:14:29;1.00;;;0.40;;
7173;SDS011;3628;48.654;8.932;2023-04-24T04:16:54;0.20;;;0.20;;
7173;SDS011;3628;48.654;8.932;2023-04-24T04:19:20;0.30;;;0.20;;
7173;SDS011;3628;48.654;8.932;2023-04-24T04:21:46;0.57;;;0.40;;
7173;SDS011;3628;48.654;8.932;2023-04-24T04:24:15;0.93;;;0.30;;
7173;SDS011;3628;48.654;8.932;2023-04-24T04:26:41;0.53;;;0.40;;
7173;SDS011;3628;48.654;8.932;2023-04-24T04:29:12;0.40;;;0.40;;
7173;SDS011;3628;48.654;8.932;2023-04-24T04:31:38;0.60;;;0.33;;
7173;SDS011;3628;48.654;8.932;2023-04-24T04:34:04;0.80;;;0.50;;
7173;SDS011;3628;48.654;8.932;2023-04-24T04:36:30;0.50;;;0.50;;
7173;SDS011;3628;48.654;8.932;2023-04-24T04:38:56;0.93;;;0.70;;
7173;SDS011;3628;48.654;8.932;2023-04-24T04:41:21;2.07;;;0.77;;
7173;SDS011;3628;48.654;8.932;2023-04-24T04:43:47;0.93;;;0.70;;
7173;SDS011;3628;48.654;8.932;2023-04-24T04:46:13;0.80;;;0.60;;
7173;SDS011;3628;48.654;8.932;2023-04-24T04:48:38;0.67;;;0.50;;
7173;SDS011;3628;48.654;8.932;2023-04-24T04:51:05;0.83;;;0.50;;
7173;SDS011;3628;48.654;8.932;2023-04-24T04:53:31;0.37;;;0.37;;
7173;SDS011;3628;48.654;8.932;2023-04-24T04:55:56;1.23;;;0.53;;
7173;SDS011;3628;48.654;8.932;2023-04-24T04:58:22;0.60;;;0.60;;
7173;SDS011;3628;48.654;8.932;2023-04-24T05:00:47;1.10;;;0.50;;
7173;SDS011;3628;48.654;8.932;2023-04-24T05:03:13;0.57;;;0.50;;
7173;SDS011;3628;48.654;8.932;2023-04-24T05:05:39;0.40;;;0.40;;
7173;SDS011;3628;48.654;8.932;2023-04-24T05:08:07;1.00;;;0.50;;
7173;SDS011;3628;48.654;8.932;2023-04-24T05:10:33;2.00;;;0.67;;
7173;SDS011;3628;48.654;8.932;2023-04-24T05:12:59;0.80;;;0.80;;
7173;SDS011;3628;48.654;8.932;2023-04-24T05:15:24;0.80;;;0.80;;
7173;SDS011;3628;48.654;8.932;2023-04-24T05:17:50;0.93;;;0.73;;
7173;SDS011;3628;48.654;8.932;2023-04-24T05:20:15;0.87;;;0.53;;
7173;SDS011;3628;48.654;8.932;2023-04-24T05:22:41;0.50;;;0.50;;
7173;SDS011;3628;48.654;8.932;2023-04-24T05:25:07;0.60;;;0.60;;
7173;SDS011;3628;48.654;8.932;2023-04-24T05:27:33;2.77;;;0.90;;
7173;SDS011;3628;48.654;8.932;2023-04-24T05:29:59;0.77;;;0.77;;
7173;SDS011;3628;48.654;8.932;2023-04-24T05:32:24;1.03;;;0.80;;
7173;SDS011;3628;48.654;8.932;2023-04-24T05:34:51;1.20;;;0.90;;
7173;SDS011;3628;48.654;8.932;2023-04-24T05:37:17;0.80;;;0.80;;
7173;SDS011;3628;48.654;8.932;2023-04-24T05:39:43;1.73;;;0.90;;
7173;SDS011;3628;48.654;8.932;2023-04-24T05:42:08;1.30;;;0.90;;
7173;SDS011;3628;48.654;8.932;2023-04-24T05:44:34;1.33;;;1.00;;
7173;SDS011;3628;48.654;8.932;2023-04-24T05:47:00;1.20;;;0.90;;
7173;SDS011;3628;48.654;8.932;2023-04-24T05:49:25;1.57;;;0.80;;
7173;SDS011;3628;48.654;8.932;2023-04-24T05:51:51;1.13;;;0.90;;
7173;SDS011;3628;48.654;8.932;2023-04-24T05:54:16;2.20;;;0.70;;
7173;SDS011;3628;48.654;8.932;2023-04-24T05:56:42;1.73;;;0.90;;
7173;SDS011;3628;48.654;8.932;2023-04-24T05:59:08;1.90;;;1.00;;
7173;SDS011;3628;48.654;8.932;2023-04-24T06:01:33;1.10;;;1.00;;
7173;SDS011;3628;48.654;8.932;2023-04-24T06:04:00;0.90;;;0.90;;
7173;SDS011;3628;48.654;8.932;2023-04-24T06:06:27;1.00;;;0.90;;
7173;SDS011;3628;48.654;8.932;2023-04-24T06:08:53;1.10;;;0.83;;
7173;SDS011;3628;48.654;8.932;2023-04-24T06:11:19;1.47;;;1.00;;
7173;SDS011;3628;48.654;8.932;2023-04-24T06:13:45;1.33;;;0.83;;
7173;SDS011;3628;48.654;8.932;2023-04-24T06:16:10;1.43;;;1.10;;
7173;SDS011;3628;48.654;8.932;2023-04-24T06:18:36;3.07;;;0.90;;
7173;SDS011;3628;48.654;8.932;2023-04-24T06:21:02;2.50;;;0.97;;
7173;SDS011;3628;48.654;8.932;2023-04-24T06:23:27;1.27;;;0.90;;
7173;SDS011;3628;48.654;8.932;2023-04-24T06:25:53;0.70;;;0.70;;
7173;SDS011;3628;48.654;8.932;2023-04-24T06:28:18;0.97;;;0.80;;
7173;SDS011;3628;48.654;8.932;2023-04-24T06:30:44;0.77;;;0.77;;
7173;SDS011;3628;48.654;8.932;2023-04-24T06:33:10;1.70;;;0.80;;
7173;SDS011;3628;48.654;8.932;2023-04-24T06:35:36;0.60;;;0.60;;
7173;SDS011;3628;48.654;8.932;2023-04-24T06:38:02;1.27;;;0.80;;
7173;SDS011;3628;48.654;8.932;2023-04-24T06:40:28;0.70;;;0.57;;
7173;SDS011;3628;48.654;8.932;2023-04-24T06:42:54;1.17;;;0.90;;
7173;SDS011;3628;48.654;8.932;2023-04-24T06:45:19;0.70;;;0.70;;
7173;SDS011;3628;48.654;8.932;2023-04-24T06:47:45;0.77;;;0.70;;
7173;SDS011;3628;48.654;8.932;2023-04-24T06:50:11;1.33;;;0.83;;
7173;SDS011;3628;48.654;8.932;2023-04-24T06:52:37;1.17;;;0.77;;
7173;SDS011;3628;48.654;8.932;2023-04-24T06:55:03;0.80;;;0.63;;
7173;SDS011;3628;48.654;8.932;2023-04-24T06:57:29;1.40;;;0.73;;
7173;SDS011;3628;48.654;8.932;2023-04-24T06:59:55;0.53;;;0.50;;
7173;SDS011;3628;48.654;8.932;2023-04-24T07:02:21;0.40;;;0.40;;
7173;SDS011;3628;48.654;8.932;2023-04-24T07:04:46;0.60;;;0.50;;
7173;SDS011;3628;48.654;8.932;2023-04-24T07:07:15;0.40;;;0.40;;
7173;SDS011;3628;48.654;8.932;2023-04-24T07:09:41;0.73;;;0.50;;
7173;SDS011;3628;48.654;8.932;2023-04-24T07:12:07;0.90;;;0.30;;
7173;SDS011;3628;48.654;8.932;2023-04-24T07:14:33;0.30;;;0.30;;
7173;SDS011;3628;48.654;8.932;2023-04-24T07:16:59;1.80;;;0.50;;
7173;SDS011;3628;48.654;8.932;2023-04-24T07:19:26;0.40;;;0.40;;
7173;SDS011;3628;48.654;8.932;2023-04-24T07:21:51;0.50;;;0.40;;
7173;SDS011;3628;48.654;8.932;2023-04-24T07:24:18;0.67;;;0.67;;
7173;SDS011;3628;48.654;8.932;2023-04-24T07:26:44;2.00;;;0.60;;
7173;SDS011;3628;48.654;8.932;2023-04-24T07:29:11;0.67;;;0.60;;
7173;SDS011;3628;48.654;8.932;2023-04-24T07:31:37;0.57;;;0.40;;
7173;SDS011;3628;48.654;8.932;2023-04-24T07:34:02;0.60;;;0.60;;
7173;SDS011;3628;48.654;8.932;2023-04-24T07:36:28;0.43;;;0.43;;
7173;SDS011;3628;48.654;8.932;2023-04-24T07:38:54;1.90;;;0.60;;
7173;SDS011;3628;48.654;8.932;2023-04-24T07:41:20;0.83;;;0.60;;
7173;SDS011;3628;48.654;8.932;2023-04-24T07:43:46;2.03;;;0.77;;
7173;SDS011;3628;48.654;8.932;2023-04-24T07:46:11;0.70;;;0.70;;
7173;SDS011;3628;48.654;8.932;2023-04-24T07:48:37;0.80;;;0.60;;
7173;SDS011;3628;48.654;8.932;2023-04-24T07:51:03;2.60;;;0.63;;
7173;SDS011;3628;48.654;8.932;2023-04-24T07:53:28;0.60;;;0.60;;
7173;SDS011;3628;48.654;8.932;2023-04-24T07:55:55;0.70;;;0.63;;
7173;SDS011;3628;48.654;8.932;2023-04-24T07:58:21;0.50;;;0.50;;
7173;SDS011;3628;48.654;8.932;2023-04-24T08:00:47;0.67;;;0.63;;
7173;SDS011;3628;48.654;8.932;2023-04-24T08:03:12;1.10;;;1.00;;
7173;SDS011;3628;48.654;8.932;2023-04-24T08:05:38;2.50;;;0.60;;
7173;SDS011;3628;48.654;8.932;2023-04-24T08:08:04;0.50;;;0.50;;
7173;SDS011;3628;48.654;8.932;2023-04-24T08:10:29;0.67;;;0.60;;
7173;SDS011;3628;48.654;8.932;2023-04-24T08:12:55;1.97;;;0.70;;
7173;SDS011;3628;48.654;8.932;2023-04-24T08:15:21;0.60;;;0.60;;
7173;SDS011;3628;48.654;8.932;2023-04-24T08:17:46;0.73;;;0.73;;
7173;SDS011;3628;48.654;8.932;2023-04-24T08:20:12;0.70;;;0.60;;
7173;SDS011;3628;48.654;8.932;2023-04-24T08:22:41;1.80;;;0.60;;
7173;SDS011;3628;48.654;8.932;2023-04-24T08:25:07;1.60;;;0.70;;
7173;SDS011;3628;48.654;8.932;2023-04-24T08:27:33;0.73;;;0.67;;
7173;SDS011;3628;48.654;8.932;2023-04-24T08:29:59;2.07;;;0.80;;
7173;SDS011;3628;48.654;8.932;2023-04-24T08:32:25;2.97;;;0.50;;
7173;SDS011;3628;48.654;8.932;2023-04-24T08:34:53;0.60;;;0.60;;
7173;SDS011;3628;48.654;8.932;2023-04-24T08:37:21;1.07;;;0.70;;
7173;SDS011;3628;48.654;8.932;2023-04-24T08:39:47;1.73;;;0.80;;
7173;SDS011;3628;48.654;8.932;2023-04-24T08:42:13;1.03;;;0.60;;
7173;SDS011;3628;48.654;8.932;2023-04-24T08:44:40;1.40;;;0.73;;
7173;SDS011;3628;48.654;8.932;2023-04-24T08:47:06;1.03;;;0.67;;
7173;SDS011;3628;48.654;8.932;2023-04-24T08:49:32;1.90;;;1.00;;
7173;SDS011;3628;48.654;8.932;2023-04-24T08:52:01;0.77;;;0.77;;
7173;SDS011;3628;48.654;8.932;2023-04-24T08:54:27;0.93;;;0.87;;
7173;SDS011;3628;48.654;8.932;2023-04-24T08:56:53;3.00;;;0.80;;
7173;SDS011;3628;48.654;8.932;2023-04-24T08:59:26;0.80;;;0.80;;
7173;SDS011;3628;48.654;8.932;2023-04-24T09:02:01;1.40;;;0.70;;
7173;SDS011;3628;48.654;8.932;2023-04-24T09:04:28;1.30;;;0.87;;
7173;SDS011;3628;48.654;8.932;2023-04-24T09:06:55;3.03;;;0.70;;
7173;SDS011;3628;48.654;8.932;2023-04-24T09:09:22;1.30;;;0.80;;
7173;SDS011;3628;48.654;8.932;2023-04-24T09:11:49;0.80;;;0.60;;
7173;SDS011;3628;48.654;8.932;2023-04-24T09:14:16;1.00;;;0.77;;
7173;SDS011;3628;48.654;8.932;2023-04-24T09:16:42;0.97;;;0.63;;
7173;SDS011;3628;48.654;8.932;2023-04-24T09:19:08;0.40;;;0.40;;
7173;SDS011;3628;48.654;8.932;2023-04-24T09:21:34;1.83;;;0.60;;
7173;SDS011;3628;48.654;8.932;2023-04-24T09:24:01;0.70;;;0.60;;
7173;SDS011;3628;48.654;8.932;2023-04-24T09:26:30;1.10;;;0.53;;
7173;SDS011;3628;48.654;8.932;2023-04-24T09:28:57;2.87;;;0.70;;
7173;SDS011;3628;48.654;8.932;2023-04-24T09:31:23;2.40;;;0.70;;
7173;SDS011;3628;48.654;8.932;2023-04-24T09:36:30;2.57;;;0.60;;
7173;SDS011;3628;48.654;8.932;2023-04-24T09:39:02;1.70;;;0.40;;
7173;SDS011;3628;48.654;8.932;2023-04-24T09:41:31;2.37;;;0.60;;
7173;SDS011;3628;48.654;8.932;2023-04-24T09:43:58;0.47;;;0.47;;
7173;SDS011;3628;48.654;8.932;2023-04-24T09:46:36;0.80;;;0.40;;
7173;SDS011;3628;48.654;8.932;2023-04-24T09:49:35;1.53;;;0.50;;
7173;SDS011;3628;48.654;8.932;2023-04-24T09:52:04;1.17;;;0.50;;
7173;SDS011;3628;48.654;8.932;2023-04-24T09:54:30;1.20;;;0.67;;
7173;SDS011;3628;48.654;8.932;2023-04-24T09:56:56;1.20;;;0.50;;
7173;SDS011;3628;48.654;8.932;2023-04-24T09:59:22;0.63;;;0.50;;
7173;SDS011;3628;48.654;8.932;2023-04-24T10:01:48;0.77;;;0.50;;
7173;SDS011;3628;48.654;8.932;2023-04-24T10:04:21;0.70;;;0.47;;
7173;SDS011;3628;48.654;8.932;2023-04-24T10:06:49;0.70;;;0.50;;
7173;SDS011;3628;48.654;8.932;2023-04-24T10:09:16;0.43;;;0.40;;
7173;SDS011;3628;48.654;8.932;2023-04-24T10:11:44;1.17;;;0.50;;
7173;SDS011;3628;48.654;8.932;2023-04-24T10:14:14;0.90;;;0.50;;
7173;SDS011;3628;48.654;8.932;2023-04-24T10:16:41;2.23;;;0.60;;
7173;SDS011;3628;48.654;8.932;2023-04-24T10:19:07;0.47;;;0.40;;
7173;SDS011;3628;48.654;8.932;2023-04-24T10:21:34;0.67;;;0.40;;
7173;SDS011;3628;48.654;8.932;2023-04-24T10:24:00;0.90;;;0.50;;
7173;SDS011;3628;48.654;8.932;2023-04-24T10:26:28;1.30;;;0.70;;
7173;SDS011;3628;48.654;8.932;2023-04-24T10:28:54;1.27;;;0.50;;
7173;SDS011;3628;48.654;8.932;2023-04-24T10:31:23;0.57;;;0.50;;
7173;SDS011;3628;48.654;8.932;2023-04-24T10:33:49;0.60;;;0.50;;
7173;SDS011;3628;48.654;8.932;2023-04-24T10:36:16;0.87;;;0.40;;
7173;SDS011;3628;48.654;8.932;2023-04-24T10:38:42;1.30;;;0.53;;
7173;SDS011;3628;48.654;8.932;2023-04-24T10:41:11;0.83;;;0.60;;
7173;SDS011;3628;48.654;8.932;2023-04-24T10:43:44;2.00;;;0.60;;
7173;SDS011;3628;48.654;8.932;2023-04-24T10:46:10;2.33;;;0.60;;
7173;SDS011;3628;48.654;8.932;2023-04-24T10:48:44;1.80;;;0.63;;
7173;SDS011;3628;48.654;8.932;2023-04-24T10:51:18;0.77;;;0.47;;
7173;SDS011;3628;48.654;8.932;2023-04-24T10:53:47;0.73;;;0.50;;
7173;SDS011;3628;48.654;8.932;2023-04-24T10:56:17;0.30;;;0.30;;
7173;SDS011;3628;48.654;8.932;2023-04-24T10:58:44;0.60;;;0.50;;
7173;SDS011;3628;48.654;8.932;2023-04-24T11:01:32;1.33;;;0.60;;
7173;SDS011;3628;48.654;8.932;2023-04-24T11:04:01;1.10;;;0.70;;
7173;SDS011;3628;48.654;8.932;2023-04-24T11:06:34;1.07;;;0.70;;
7173;SDS011;3628;48.654;8.932;2023-04-24T11:09:08;1.07;;;0.70;;
7173;SDS011;3628;48.654;8.932;2023-04-24T11:11:37;0.83;;;0.70;;
7173;SDS011;3628;48.654;8.932;2023-04-24T11:14:08;0.60;;;0.60;;
7173;SDS011;3628;48.654;8.932;2023-04-24T11:16:36;0.80;;;0.57;;
7173;SDS011;3628;48.654;8.932;2023-04-24T11:19:17;2.00;;;0.63;;
7173;SDS011;3628;48.654;8.932;2023-04-24T11:21:50;0.53;;;0.53;;
7173;SDS011;3628;48.654;8.932;2023-04-24T11:24:24;0.70;;;0.40;;
7173;SDS011;3628;48.654;8.932;2023-04-24T11:32:28;1.13;;;0.33;;
7173;SDS011;3628;48.654;8.932;2023-04-24T11:34:58;1.00;;;0.40;;
7173;SDS011;3628;48.654;8.932;2023-04-24T11:37:41;0.40;;;0.40;;
7173;SDS011;3628;48.654;8.932;2023-04-24T11:40:18;1.10;;;0.57;;
7173;SDS011;3628;48.654;8.932;2023-04-24T11:42:52;1.90;;;0.70;;
7173;SDS011;3628;48.654;8.932;2023-04-24T11:45:24;1.60;;;0.40;;
7173;SDS011;3628;48.654;8.932;2023-04-24T11:47:51;0.40;;;0.37;;
7173;SDS011;3628;48.654;8.932;2023-04-24T11:50:17;1.13;;;0.90;;
7173;SDS011;3628;48.654;8.932;2023-04-24T11:52:45;3.47;;;0.70;;
7173;SDS011;3628;48.654;8.932;2023-04-24T11:57:48;1.00;;;0.70;;
7173;SDS011;3628;48.654;8.932;2023-04-24T12:00:22;1.07;;;0.57;;
7173;SDS011;3628;48.654;8.932;2023-04-24T12:02:48;0.50;;;0.50;;
7173;SDS011;3628;48.654;8.932;2023-04-24T12:05:24;2.67;;;0.70;;
7173;SDS011;3628;48.654;8.932;2023-04-24T12:07:51;0.60;;;0.60;;
7173;SDS011;3628;48.654;8.932;2023-04-24T12:10:21;0.80;;;0.70;;
7173;SDS011;3628;48.654;8.932;2023-04-24T12:12:48;1.27;;;0.80;;
7173;SDS011;3628;48.654;8.932;2023-04-24T12:15:16;0.70;;;0.70;;
7173;SDS011;3628;48.654;8.932;2023-04-24T12:17:42;2.20;;;0.53;;
7173;SDS011;3628;48.654;8.932;2023-04-24T12:20:08;0.70;;;0.60;;
7173;SDS011;3628;48.654;8.932;2023-04-24T12:22:47;1.70;;;0.80;;
7173;SDS011;3628;48.654;8.932;2023-04-24T12:25:16;0.60;;;0.50;;
7173;SDS011;3628;48.654;8.932;2023-04-24T12:27:43;0.90;;;0.60;;
7173;SDS011;3628;48.654;8.932;2023-04-24T12:30:11;2.20;;;0.60;;
7173;SDS011;3628;48.654;8.932;2023-04-24T12:32:50;1.03;;;0.80;;
7173;SDS011;3628;48.654;8.932;2023-04-24T12:35:20;0.70;;;0.63;;
7173;SDS011;3628;48.654;8.932;2023-04-24T12:37:47;0.50;;;0.43;;
7173;SDS011;3628;48.654;8.932;2023-04-24T12:40:13;1.03;;;0.43;;
7173;SDS011;3628;48.654;8.932;2023-04-24T12:42:47;1.07;;;0.70;;
7173;SDS011;3628;48.654;8.932;2023-04-24T12:45:14;0.70;;;0.70;;
7173;SDS011;3628;48.654;8.932;2023-04-24T12:47:41;0.70;;;0.70;;
7173;SDS011;3628;48.654;8.932;2023-04-24T12:50:08;0.73;;;0.60;;
7173;SDS011;3628;48.654;8.932;2023-04-24T12:52:35;0.70;;;0.70;;
7173;SDS011;3628;48.654;8.932;2023-04-24T12:55:01;2.87;;;0.70;;
7173;SDS011;3628;48.654;8.932;2023-04-24T12:57:28;0.93;;;0.60;;
7173;SDS011;3628;48.654;8.932;2023-04-24T12:59:55;0.70;;;0.70;;
7173;SDS011;3628;48.654;8.932;2023-04-24T13:02:23;1.03;;;0.80;;
7173;SDS011;3628;48.654;8.932;2023-04-24T13:04:50;2.77;;;0.60;;
7173;SDS011;3628;48.654;8.932;2023-04-24T13:07:16;1.20;;;0.90;;
7173;SDS011;3628;48.654;8.932;2023-04-24T13:09:42;0.70;;;0.70;;
7173;SDS011;3628;48.654;8.932;2023-04-24T13:12:09;0.67;;;0.67;;
7173;SDS011;3628;48.654;8.932;2023-04-24T13:14:36;2.30;;;1.00;;
7173;SDS011;3628;48.654;8.932;2023-04-24T13:17:02;3.13;;;0.80;;
7173;SDS011;3628;48.654;8.932;2023-04-24T13:19:28;1.70;;;0.90;;
7173;SDS011;3628;48.654;8.932;2023-04-24T13:21:55;1.70;;;0.87;;
7173;SDS011;3628;48.654;8.932;2023-04-24T13:24:22;1.27;;;1.10;;
7173;SDS011;3628;48.654;8.932;2023-04-24T13:26:54;2.50;;;1.00;;
7173;SDS011;3628;48.654;8.932;2023-04-24T13:29:21;1.03;;;0.90;;
7173;SDS011;3628;48.654;8.932;2023-04-24T13:31:49;0.90;;;0.80;;
7173;SDS011;3628;48.654;8.932;2023-04-24T13:34:16;2.27;;;1.03;;
7173;SDS011;3628;48.654;8.932;2023-04-24T13:36:45;1.00;;;0.90;;
7173;SDS011;3628;48.654;8.932;2023-04-24T13:39:11;1.23;;;0.73;;
7173;SDS011;3628;48.654;8.932;2023-04-24T13:41:36;1.00;;;0.90;;
7173;SDS011;3628;48.654;8.932;2023-04-24T13:44:02;1.23;;;0.87;;
7173;SDS011;3628;48.654;8.932;2023-04-24T13:46:29;0.67;;;0.67;;
7173;SDS011;3628;48.654;8.932;2023-04-24T13:48:54;1.03;;;0.93;;
7173;SDS011;3628;48.654;8.932;2023-04-24T13:51:21;1.13;;;0.80;;
7173;SDS011;3628;48.654;8.932;2023-04-24T13:53:47;0.80;;;0.80;;
7173;SDS011;3628;48.654;8.932;2023-04-24T13:56:13;1.17;;;0.80;;
7173;SDS011;3628;48.654;8.932;2023-04-24T13:58:39;2.10;;;0.73;;
7173;SDS011;3628;48.654;8.932;2023-04-24T14:01:04;0.80;;;0.80;;
7173;SDS011;3628;48.654;8.932;2023-04-24T14:03:30;1.10;;;0.73;;
7173;SDS011;3628;48.654;8.932;2023-04-24T14:05:56;0.80;;;0.80;;
7173;SDS011;3628;48.654;8.932;2023-04-24T14:08:22;1.53;;;1.00;;
7173;SDS011;3628;48.654;8.932;2023-04-24T14:10:48;0.93;;;0.77;;
7173;SDS011;3628;48.654;8.932;2023-04-24T14:13:13;0.73;;;0.73;;
7173;SDS011;3628;48.654;8.932;2023-04-24T14:15:39;1.47;;;0.80;;
7173;SDS011;3628;48.654;8.932;2023-04-24T14:18:05;1.37;;;0.80;;
7173;SDS011;3628;48.654;8.932;2023-04-24T14:20:30;2.30;;;1.10;;
7173;SDS011;3628;48.654;8.932;2023-04-24T14:22:56;0.87;;;0.80;;
7173;SDS011;3628;48.654;8.932;2023-04-24T14:25:25;1.87;;;1.17;;
7173;SDS011;3628;48.654;8.932;2023-04-24T14:27:51;1.00;;;0.90;;
7173;SDS011;3628;48.654;8.932;2023-04-24T14:30:17;1.57;;;0.90;;
7173;SDS011;3628;48.654;8.932;2023-04-24T14:32:43;3.93;;;1.00;;
7173;SDS011;3628;48.654;8.932;2023-04-24T14:35:08;0.60;;;0.60;;
7173;SDS011;3628;48.654;8.932;2023-04-24T14:37:34;0.80;;;0.80;;
7173;SDS011;3628;48.654;8.932;2023-04-24T14:40:01;1.07;;;0.97;;
7173;SDS011;3628;48.654;8.932;2023-04-24T14:42:26;1.17;;;0.80;;
7173;SDS011;3628;48.654;8.932;2023-04-24T14:44:53;0.90;;;0.80;;
7173;SDS011;3628;48.654;8.932;2023-04-24T14:47:19;2.53;;;0.80;;
7173;SDS011;3628;48.654;8.932;2023-04-24T14:49:46;1.60;;;1.00;;
7173;SDS011;3628;48.654;8.932;2023-04-24T14:52:13;0.80;;;0.80;;
7173;SDS011;3628;48.654;8.932;2023-04-24T14:54:38;1.43;;;0.80;;
7173;SDS011;3628;48.654;8.932;2023-04-24T14:57:04;0.83;;;0.63;;
7173;SDS011;3628;48.654;8.932;2023-04-24T14:59:30;1.67;;;0.77;;
7173;SDS011;3628;48.654;8.932;2023-04-24T15:01:56;0.70;;;0.70;;
7173;SDS011;3628;48.654;8.932;2023-04-24T15:04:23;1.80;;;1.00;;
7173;SDS011;3628;48.654;8.932;2023-04-24T15:06:50;1.17;;;0.77;;
7173;SDS011;3628;48.654;8.932;2023-04-24T15:09:16;1.20;;;0.70;;
7173;SDS011;3628;48.654;8.932;2023-04-24T15:11:42;1.17;;;0.90;;
7173;SDS011;3628;48.654;8.932;2023-04-24T15:14:07;1.13;;;1.00;;
7173;SDS011;3628;48.654;8.932;2023-04-24T15:16:33;2.73;;;1.00;;
7173;SDS011;3628;48.654;8.932;2023-04-24T15:18:58;1.57;;;1.30;;
7173;SDS011;3628;48.654;8.932;2023-04-24T15:21:24;0.83;;;0.73;;
7173;SDS011;3628;48.654;8.932;2023-04-24T15:23:50;1.20;;;0.80;;